Time;durP1;ratioP1;P1;durP2;ratioP2;P2;SDS_P1;SDS_P2;PMS_P1;PMS_P2;Temp;Humidity;BMP_temperature;BMP_pressure;BME280_temperature;BME280_humidity;BME280_pressure;Samples;Min_cycle;Max_cycle;Signal;HPM_P1;HPM_P2
2021/12/29 00:01:04;;;;;;;1.70;0.70;;;10.40;96.60;;;;;;4953676;29;20111;-75
2021/12/29 00:03:30;;;;;;;4.90;0.93;;;10.40;96.70;;;;;;4953942;29;20038;-77
2021/12/29 00:05:57;;;;;;;1.55;0.88;;;10.50;96.80;;;;;;4953886;29;20034;-76
2021/12/29 00:08:23;;;;;;;3.03;1.15;;;10.50;96.30;;;;;;4954155;29;20031;-77
2021/12/29 00:10:54;;;;;;;6.80;0.63;;;10.50;96.50;;;;;;4953486;29;20499;-78
2021/12/29 00:13:22;;;;;;;4.43;0.90;;;10.40;96.70;;;;;;4948360;29;20039;-76
2021/12/29 00:15:56;;;;;;;1.80;0.95;;;10.40;96.60;;;;;;4944260;29;20024;-77
2021/12/29 00:18:27;;;;;;;1.10;0.60;;;10.50;96.80;;;;;;4940668;29;20051;-78
2021/12/29 00:20:55;;;;;;;1.73;1.10;;;10.50;96.80;;;;;;4934316;29;20050;-78
2021/12/29 00:23:21;;;;;;;4.30;1.40;;;10.40;97.10;;;;;;4934790;29;20035;-77
2021/12/29 00:25:48;;;;;;;4.72;1.35;;;10.40;97.10;;;;;;4934503;29;20036;-78
2021/12/29 00:28:15;;;;;;;5.90;1.35;;;10.40;97.20;;;;;;4934818;29;20477;-78
2021/12/29 00:30:42;;;;;;;6.53;0.88;;;10.40;96.90;;;;;;4934909;29;20032;-78
2021/12/29 00:33:27;;;;;;;3.40;1.00;;;10.40;97.00;;;;;;4934968;29;20055;-78
2021/12/29 00:36:28;;;;;;;2.25;1.10;;;10.40;97.00;;;;;;4858176;29;20041;-78
2021/12/29 00:39:14;;;;;;;2.85;1.15;;;10.40;97.30;;;;;;4929439;29;20040;-78
2021/12/29 00:41:43;;;;;;;2.25;0.80;;;10.40;97.00;;;;;;4934742;29;20039;-76
2021/12/29 00:44:18;;;;;;;2.05;0.90;;;10.40;97.00;;;;;;4935157;29;20044;-77
2021/12/29 00:47:02;;;;;;;4.22;1.88;;;10.40;97.10;;;;;;4932130;29;20051;-78
2021/12/29 00:49:35;;;;;;;2.45;1.20;;;10.40;97.10;;;;;;4934625;29;20052;-77
2021/12/29 00:52:05;;;;;;;6.10;1.27;;;10.40;97.00;;;;;;4934278;29;20047;-79
2021/12/29 00:54:32;;;;;;;9.50;4.05;;;10.40;96.70;;;;;;4935325;29;20043;-78
2021/12/29 00:56:58;;;;;;;2.15;1.20;;;10.50;96.90;;;;;;4933637;29;20039;-75
2021/12/29 00:59:24;;;;;;;3.55;1.52;;;10.40;97.10;;;;;;4935215;29;20047;-75
2021/12/29 01:01:52;;;;;;;7.07;2.30;;;10.40;97.10;;;;;;4919863;29;20044;-76
2021/12/29 01:04:18;;;;;;;2.90;1.55;;;10.30;97.50;;;;;;4934838;29;20034;-77
2021/12/29 01:06:45;;;;;;;1.90;1.13;;;10.30;97.50;;;;;;4935179;29;20055;-75
2021/12/29 01:09:11;;;;;;;5.63;4.18;;;10.30;97.50;;;;;;4934570;29;20032;-76
2021/12/29 01:11:38;;;;;;;4.65;1.42;;;10.40;97.50;;;;;;4934433;29;20047;-77
2021/12/29 01:14:05;;;;;;;1.90;0.93;;;10.30;97.90;;;;;;4935265;29;20032;-75
2021/12/29 01:19:07;;;;;;;4.28;1.23;;;10.30;97.80;;;;;;4935367;29;20481;-76
2021/12/29 01:21:34;;;;;;;2.72;1.25;;;10.30;98.10;;;;;;4935257;29;20036;-78
2021/12/29 01:24:02;;;;;;;3.67;1.48;;;10.30;97.70;;;;;;4933914;29;20035;-77
2021/12/29 01:26:29;;;;;;;1.98;0.85;;;10.30;98.10;;;;;;4934386;29;20401;-77
2021/12/29 01:28:55;;;;;;;3.05;0.90;;;10.30;98.30;;;;;;4933494;29;20059;-77
2021/12/29 01:31:21;;;;;;;1.95;0.85;;;10.30;98.50;;;;;;4934162;29;20047;-75
2021/12/29 01:33:47;;;;;;;1.83;1.08;;;10.20;98.70;;;;;;4935903;29;20049;-74
2021/12/29 01:36:14;;;;;;;2.38;1.13;;;10.30;98.10;;;;;;4937557;29;20036;-76
2021/12/29 01:38:40;;;;;;;1.63;0.80;;;10.30;98.20;;;;;;4937527;29;20031;-76
2021/12/29 01:41:06;;;;;;;2.92;1.00;;;10.40;97.90;;;;;;4919467;29;20397;-77
2021/12/29 01:43:33;;;;;;;2.47;0.80;;;10.30;98.30;;;;;;4937442;29;20044;-77
2021/12/29 01:45:59;;;;;;;3.55;1.40;;;10.30;98.70;;;;;;4936819;29;20028;-77
2021/12/29 01:48:25;;;;;;;2.67;1.55;;;10.20;99.50;;;;;;4937455;29;20062;-75
2021/12/29 01:50:52;;;;;;;7.85;5.05;;;10.10;99.80;;;;;;4937024;29;20462;-74
2021/12/29 01:53:27;;;;;;;6.57;4.05;;;10.10;99.70;;;;;;4937596;29;20034;-76
2021/12/29 01:55:53;;;;;;;3.05;1.90;;;10.20;99.30;;;;;;4936647;29;20043;-78
2021/12/29 01:58:21;;;;;;;2.85;1.40;;;10.20;99.30;;;;;;4937368;29;20126;-76
2021/12/29 02:00:48;;;;;;;1.58;1.15;;;10.20;99.10;;;;;;4937401;29;20042;-77
2021/12/29 02:03:15;;;;;;;4.80;1.50;;;10.10;99.80;;;;;;4936914;29;20055;-76
2021/12/29 02:05:42;;;;;;;1.73;1.00;;;10.10;99.90;;;;;;4937406;29;20036;-80
2021/12/29 02:08:09;;;;;;;3.70;1.70;;;10.00;99.90;;;;;;4936520;29;20244;-77
2021/12/29 02:10:43;;;;;;;2.28;1.30;;;9.90;99.90;;;;;;4937587;29;20036;-76
2021/12/29 02:13:10;;;;;;;1.85;1.08;;;9.90;99.90;;;;;;4936651;29;20039;-75
2021/12/29 02:15:37;;;;;;;2.72;1.35;;;9.90;99.90;;;;;;4936891;29;20031;-76
2021/12/29 02:18:12;;;;;;;3.22;1.95;;;10.00;99.90;;;;;;4936352;29;20030;-76
2021/12/29 02:20:39;;;;;;;3.67;1.65;;;9.90;99.90;;;;;;4936929;29;20032;-77
2021/12/29 02:23:55;;;;;;;1.77;0.65;;;10.00;99.90;;;;;;4936199;29;20401;-77
2021/12/29 02:25:59;;;;;;;7.28;3.05;;;10.00;99.90;;;;;;4933140;29;20374;-76
2021/12/29 02:28:32;;;;;;;1.77;1.05;;;9.90;99.90;;;;;;4936989;29;20449;-76
2021/12/29 02:30:59;;;;;;;1.45;0.70;;;9.90;99.90;;;;;;4936013;29;20035;-77
2021/12/29 02:33:27;;;;;;;1.80;0.90;;;10.00;99.90;;;;;;4937057;29;20473;-76
2021/12/29 02:35:54;;;;;;;2.45;1.05;;;9.90;99.90;;;;;;4936048;29;20028;-76
2021/12/29 02:38:26;;;;;;;3.28;0.75;;;10.00;99.90;;;;;;4936558;29;20040;-78
2021/12/29 02:40:54;;;;;;;1.42;0.90;;;10.00;99.90;;;;;;4935870;29;20036;-75
2021/12/29 02:43:22;;;;;;;1.05;0.55;;;10.00;99.90;;;;;;4936498;29;20046;-77
2021/12/29 02:45:54;;;;;;;2.00;1.63;;;10.00;99.90;;;;;;4918004;29;20050;-76
2021/12/29 02:48:23;;;;;;;2.80;1.48;;;10.10;99.90;;;;;;4936758;29;20032;-76
2021/12/29 02:50:54;;;;;;;0.98;0.70;;;10.10;99.90;;;;;;4915431;29;20056;-76
2021/12/29 02:53:21;;;;;;;0.52;0.47;;;10.10;99.80;;;;;;4917349;29;20036;-78
2021/12/29 02:55:47;;;;;;;1.30;0.50;;;10.10;99.90;;;;;;4917219;29;20032;-78
2021/12/29 02:58:13;;;;;;;2.30;1.13;;;10.10;99.90;;;;;;4916552;29;20386;-77
2021/12/29 03:00:40;;;;;;;1.20;0.60;;;10.10;99.90;;;;;;4917055;29;20036;-75
2021/12/29 03:03:21;;;;;;;2.80;1.20;;;10.10;99.90;;;;;;4916794;29;20028;-76
2021/12/29 03:05:49;;;;;;;4.90;0.80;;;10.00;99.90;;;;;;4917273;29;20034;-76
2021/12/29 03:08:17;;;;;;;2.20;1.00;;;10.00;99.90;;;;;;4916379;29;20470;-76
2021/12/29 03:10:45;;;;;;;1.83;0.70;;;10.10;99.90;;;;;;4916821;29;20059;-76
2021/12/29 03:13:12;;;;;;;3.75;1.15;;;10.00;99.90;;;;;;4916133;29;20040;-76
2021/12/29 03:15:38;;;;;;;2.15;1.10;;;10.00;99.90;;;;;;4916716;29;20035;-78
2021/12/29 03:18:05;;;;;;;6.28;4.25;;;10.00;99.90;;;;;;4916188;29;20032;-76
2021/12/29 03:20:33;;;;;;;3.33;1.15;;;10.00;99.90;;;;;;4916723;29;20040;-76
2021/12/29 03:23:00;;;;;;;2.08;1.55;;;10.00;99.90;;;;;;4916197;29;20047;-74
2021/12/29 03:25:26;;;;;;;2.65;1.33;;;9.90;99.90;;;;;;4916874;29;20036;-75
2021/12/29 03:27:58;;;;;;;3.50;1.70;;;9.90;99.90;;;;;;4916941;29;20040;-76
2021/12/29 03:30:41;;;;;;;1.92;0.98;;;9.90;99.90;;;;;;4916595;29;20053;-76
2021/12/29 03:33:09;;;;;;;7.00;2.70;;;9.90;99.90;;;;;;4915829;29;20051;-76
2021/12/29 03:35:42;;;;;;;4.25;1.30;;;9.80;99.90;;;;;;4916340;29;20040;-75
2021/12/29 03:38:14;;;;;;;2.40;1.30;;;9.80;99.90;;;;;;4915876;29;20032;-75
2021/12/29 03:40:41;;;;;;;1.38;0.80;;;9.70;99.90;;;;;;4916458;29;20040;-75
2021/12/29 03:43:09;;;;;;;3.75;1.55;;;9.70;99.90;;;;;;4915689;29;20047;-75
2021/12/29 03:45:37;;;;;;;3.58;1.25;;;9.70;99.90;;;;;;4916556;29;20127;-76
2021/12/29 03:48:05;;;;;;;3.05;1.38;;;9.70;99.90;;;;;;4916259;29;20121;-76
2021/12/29 03:50:31;;;;;;;2.88;1.33;;;9.70;99.90;;;;;;4930010;29;20410;-76
2021/12/29 03:52:57;;;;;;;2.50;1.05;;;9.70;99.90;;;;;;4934923;29;20035;-76
2021/12/29 03:55:23;;;;;;;1.92;1.35;;;9.70;99.90;;;;;;4935097;29;20035;-77
2021/12/29 03:57:50;;;;;;;4.75;1.60;;;9.70;99.90;;;;;;4935313;29;20462;-77
2021/12/29 04:00:18;;;;;;;2.30;1.40;;;9.70;99.90;;;;;;4934727;29;20401;-77
2021/12/29 04:02:45;;;;;;;2.10;1.13;;;9.60;99.90;;;;;;4935103;29;20035;-77
2021/12/29 04:05:14;;;;;;;2.83;1.05;;;9.60;99.90;;;;;;4934724;29;20038;-78
2021/12/29 04:07:41;;;;;;;4.07;1.38;;;9.60;99.90;;;;;;4935122;29;20058;-77
2021/12/29 04:10:08;;;;;;;3.40;1.00;;;9.60;99.90;;;;;;4934097;29;20039;-78
2021/12/29 04:12:34;;;;;;;2.22;1.00;;;9.60;99.90;;;;;;4934369;29;20036;-76
2021/12/29 04:15:01;;;;;;;9.32;0.77;;;9.70;99.90;;;;;;4934894;29;20039;-76
2021/12/29 04:17:36;;;;;;;1.85;0.88;;;9.80;99.90;;;;;;4935387;29;20020;-76
2021/12/29 04:22:57;;;;;;;0.95;0.70;;;9.80;99.90;;;;;;4934596;29;20031;-74
2021/12/29 04:25:25;;;;;;;1.00;0.75;;;9.80;99.90;;;;;;4934721;29;20031;-79
2021/12/29 04:27:57;;;;;;;2.38;1.05;;;9.90;99.90;;;;;;4934821;29;20059;-76
2021/12/29 04:30:24;;;;;;;2.17;0.93;;;9.90;99.90;;;;;;4934823;29;20478;-78
2021/12/29 04:32:52;;;;;;;1.25;0.70;;;9.80;99.90;;;;;;4934552;29;20039;-77
2021/12/29 04:35:20;;;;;;;1.63;0.85;;;9.80;99.90;;;;;;4934269;29;20051;-80
2021/12/29 04:37:47;;;;;;;3.95;1.17;;;9.80;99.90;;;;;;4934675;29;20051;-77
2021/12/29 04:40:14;;;;;;;4.53;1.70;;;9.70;99.90;;;;;;4934501;29;20101;-78
2021/12/29 04:42:40;;;;;;;1.80;1.10;;;9.70;99.90;;;;;;4934641;29;20031;-75
2021/12/29 04:45:07;;;;;;;2.58;1.13;;;9.60;99.90;;;;;;4934307;29;20031;-77
2021/12/29 04:47:38;;;;;;;5.90;1.15;;;9.60;99.90;;;;;;4935184;29;20035;-78
2021/12/29 04:50:12;;;;;;;1.80;1.13;;;9.60;99.90;;;;;;4933602;29;20044;-77
2021/12/29 04:52:39;;;;;;;1.08;0.75;;;9.60;99.90;;;;;;4934967;29;20050;-77
2021/12/29 04:55:07;;;;;;;1.08;0.60;;;9.50;99.90;;;;;;4933966;29;20482;-77
2021/12/29 04:57:34;;;;;;;2.40;1.20;;;9.60;99.90;;;;;;4934452;29;20047;-77
2021/12/29 05:00:00;;;;;;;2.60;1.50;;;9.60;99.90;;;;;;4933905;29;20036;-76
2021/12/29 05:02:26;;;;;;;2.95;1.60;;;9.50;99.90;;;;;;4934793;29;20035;-78
2021/12/29 05:04:57;;;;;;;2.78;1.25;;;9.40;99.90;;;;;;4934605;29;20489;-78
2021/12/29 05:10:08;;;;;;;2.25;1.02;;;9.20;99.90;;;;;;4937375;29;20039;-78
2021/12/29 05:12:34;;;;;;;4.95;1.98;;;9.10;99.90;;;;;;4938262;29;20409;-78
2021/12/29 05:15:01;;;;;;;11.43;3.78;;;9.10;99.90;;;;;;4937424;29;20028;-77
2021/12/29 05:17:27;;;;;;;8.85;4.07;;;9.10;99.90;;;;;;4937901;29;20028;-77
2021/12/29 05:19:53;;;;;;;3.97;2.88;;;9.10;99.90;;;;;;4938039;29;20039;-78
2021/12/29 05:22:19;;;;;;;5.63;1.88;;;9.10;99.90;;;;;;4937147;29;20035;-77
2021/12/29 05:24:45;;;;;;;2.97;1.08;;;9.00;99.90;;;;;;4937749;29;20072;-78
2021/12/29 05:27:12;;;;;;;5.18;1.77;;;9.00;99.90;;;;;;4937164;29;20039;-78
2021/12/29 05:29:38;;;;;;;1.85;1.35;;;9.00;99.90;;;;;;4938064;29;20047;-78
2021/12/29 05:32:06;;;;;;;5.32;2.05;;;9.00;99.90;;;;;;4937446;29;20055;-77
2021/12/29 05:34:33;;;;;;;2.67;1.60;;;9.00;99.90;;;;;;4937786;29;20040;-78
2021/12/29 05:36:59;;;;;;;6.13;2.33;;;9.00;99.90;;;;;;4937663;29;20031;-78
2021/12/29 05:39:25;;;;;;;2.42;1.35;;;9.10;99.90;;;;;;4936866;29;20036;-78
2021/12/29 05:41:51;;;;;;;5.30;1.40;;;9.10;99.90;;;;;;4937660;29;20043;-77
2021/12/29 05:44:18;;;;;;;2.67;1.60;;;9.10;99.90;;;;;;4937295;29;20046;-77
2021/12/29 05:46:44;;;;;;;3.00;1.88;;;9.20;99.90;;;;;;4937520;29;20035;-77
2021/12/29 05:49:11;;;;;;;3.45;1.92;;;9.20;99.90;;;;;;4936991;29;20044;-77
2021/12/29 05:51:37;;;;;;;5.03;2.15;;;9.20;99.90;;;;;;4937446;29;20492;-77
2021/12/29 05:54:03;;;;;;;3.88;1.42;;;9.30;99.90;;;;;;4936724;29;20039;-77
2021/12/29 05:56:30;;;;;;;1.67;0.88;;;9.40;99.90;;;;;;4937416;29;20472;-77
2021/12/29 05:58:59;;;;;;;3.55;2.05;;;9.40;99.90;;;;;;4937216;29;20039;-77
2021/12/29 06:01:26;;;;;;;4.60;1.75;;;9.40;99.90;;;;;;4936759;29;20404;-78
2021/12/29 06:03:52;;;;;;;1.75;1.42;;;9.40;99.90;;;;;;4937408;29;20053;-78
2021/12/29 06:06:18;;;;;;;3.33;1.50;;;9.40;99.90;;;;;;4936718;29;20031;-79
2021/12/29 06:08:44;;;;;;;3.08;0.98;;;9.50;99.90;;;;;;4937419;29;20027;-76
2021/12/29 06:11:11;;;;;;;1.73;1.02;;;9.60;99.90;;;;;;4936448;29;20054;-78
2021/12/29 06:13:37;;;;;;;4.32;1.27;;;9.70;99.90;;;;;;4937068;29;20031;-78
2021/12/29 06:16:03;;;;;;;2.97;1.10;;;9.70;99.90;;;;;;4936765;29;20039;-75
2021/12/29 06:18:30;;;;;;;3.80;1.58;;;9.60;99.90;;;;;;4937254;29;20039;-77
2021/12/29 06:20:56;;;;;;;3.05;1.77;;;9.60;99.90;;;;;;4938721;29;20397;-77
2021/12/29 06:23:22;;;;;;;3.15;1.33;;;9.60;99.90;;;;;;4935807;29;20067;-76
2021/12/29 06:25:48;;;;;;;2.40;1.40;;;9.60;99.90;;;;;;4936744;29;20036;-77
2021/12/29 06:28:15;;;;;;;2.35;1.30;;;9.60;99.90;;;;;;4936125;29;20480;-77
2021/12/29 06:30:41;;;;;;;1.95;1.23;;;9.50;99.90;;;;;;4936576;29;20488;-77
2021/12/29 06:33:07;;;;;;;2.58;1.25;;;9.50;99.90;;;;;;4935991;29;20036;-78
2021/12/29 06:35:34;;;;;;;1.90;1.00;;;9.50;99.90;;;;;;4919723;29;20043;-77
2021/12/29 06:38:00;;;;;;;3.78;1.80;;;9.60;99.90;;;;;;4936508;29;20112;-77
2021/12/29 06:40:26;;;;;;;2.33;1.30;;;9.60;99.90;;;;;;4935889;29;20042;-77
2021/12/29 06:42:53;;;;;;;3.08;1.17;;;9.60;99.90;;;;;;4936507;29;20039;-77
2021/12/29 06:45:19;;;;;;;1.55;1.23;;;9.60;99.90;;;;;;4935901;29;20493;-77
2021/12/29 06:47:45;;;;;;;3.47;1.80;;;9.50;99.90;;;;;;4936682;29;20043;-77
2021/12/29 06:50:11;;;;;;;1.90;1.20;;;9.60;99.90;;;;;;4915351;29;20063;-76
2021/12/29 06:52:37;;;;;;;4.25;1.45;;;9.70;99.90;;;;;;4917177;29;20036;-76
2021/12/29 06:55:05;;;;;;;1.90;1.08;;;9.80;99.90;;;;;;4917222;29;20035;-77
2021/12/29 06:57:31;;;;;;;4.72;1.92;;;9.80;99.90;;;;;;4917225;29;20039;-77
2021/12/29 06:59:58;;;;;;;4.13;1.38;;;9.80;99.80;;;;;;4917478;29;20032;-77
2021/12/29 07:02:24;;;;;;;1.83;1.17;;;9.90;99.70;;;;;;4916924;29;20056;-76
2021/12/29 07:04:50;;;;;;;4.63;1.77;;;9.80;99.40;;;;;;4917038;29;20032;-76
2021/12/29 07:07:16;;;;;;;2.88;1.30;;;9.80;99.60;;;;;;4916698;29;20047;-76
2021/12/29 07:09:43;;;;;;;7.90;1.80;;;9.80;99.70;;;;;;4917055;29;20039;-77
2021/12/29 07:12:09;;;;;;;3.83;1.73;;;9.80;99.40;;;;;;4916549;29;20128;-78
2021/12/29 07:14:38;;;;;;;3.75;2.03;;;9.80;99.40;;;;;;4917266;29;20063;-77
2021/12/29 07:17:05;;;;;;;5.90;2.28;;;9.80;99.80;;;;;;4916680;29;20040;-76
2021/12/29 07:19:31;;;;;;;7.45;1.88;;;9.80;99.50;;;;;;4916140;29;20033;-76
2021/12/29 07:22:00;;;;;;;4.55;1.63;;;9.80;99.30;;;;;;4916660;29;20039;-76
2021/12/29 07:24:26;;;;;;;5.35;1.42;;;9.80;99.30;;;;;;4916260;29;20036;-76
2021/12/29 07:26:52;;;;;;;3.63;1.27;;;9.80;99.20;;;;;;4915401;29;20043;-76
2021/12/29 07:29:20;;;;;;;4.22;1.67;;;9.80;99.50;;;;;;4917457;29;20040;-75
2021/12/29 07:31:53;;;;;;;2.20;1.30;;;9.70;99.70;;;;;;4914923;29;20036;-76
2021/12/29 07:34:20;;;;;;;2.55;1.30;;;9.70;99.50;;;;;;4915834;29;20040;-76
2021/12/29 07:36:47;;;;;;;4.03;1.48;;;9.80;99.20;;;;;;4916377;29;20032;-76
2021/12/29 07:39:14;;;;;;;2.70;1.10;;;9.80;99.00;;;;;;4916181;29;20028;-76
2021/12/29 07:41:42;;;;;;;1.73;1.23;;;9.80;99.20;;;;;;4916483;29;20032;-77
2021/12/29 07:44:12;;;;;;;2.40;1.25;;;9.70;99.10;;;;;;4916418;29;20036;-79
2021/12/29 07:46:38;;;;;;;3.67;1.25;;;9.70;99.10;;;;;;4915832;29;20055;-74
2021/12/29 07:49:04;;;;;;;5.60;2.28;;;9.70;99.00;;;;;;4919178;29;20056;-74
2021/12/29 07:51:31;;;;;;;4.75;2.35;;;9.70;99.10;;;;;;4934465;29;20048;-76
2021/12/29 07:53:58;;;;;;;3.17;1.15;;;9.70;99.10;;;;;;4935249;29;20039;-78
2021/12/29 07:56:24;;;;;;;5.75;1.65;;;9.80;99.00;;;;;;4934246;29;20055;-76
2021/12/29 07:58:50;;;;;;;3.92;1.85;;;9.70;99.10;;;;;;4935146;29;20035;-76
2021/12/29 08:01:17;;;;;;;2.50;1.63;;;9.70;99.00;;;;;;4934422;29;20055;-78
2021/12/29 08:03:43;;;;;;;3.47;2.22;;;9.70;98.80;;;;;;4934970;29;20035;-77
2021/12/29 08:06:09;;;;;;;4.60;2.17;;;9.70;99.30;;;;;;4935112;29;20036;-77
2021/12/29 08:08:36;;;;;;;3.80;2.63;;;9.70;99.30;;;;;;4935348;29;20039;-77
2021/12/29 08:11:02;;;;;;;3.75;2.38;;;9.70;99.20;;;;;;4934968;29;20050;-78
2021/12/29 08:13:28;;;;;;;3.38;2.15;;;9.70;99.00;;;;;;4934641;29;20038;-77
2021/12/29 08:15:54;;;;;;;8.60;2.85;;;9.70;99.00;;;;;;4935090;29;20043;-77
2021/12/29 08:18:21;;;;;;;3.10;1.52;;;9.80;98.90;;;;;;4934213;29;20031;-77
2021/12/29 08:20:47;;;;;;;3.35;1.90;;;9.80;98.90;;;;;;4934890;29;20039;-77
2021/12/29 08:23:13;;;;;;;4.07;1.63;;;9.80;98.70;;;;;;4934590;29;20031;-76
2021/12/29 08:25:40;;;;;;;2.78;1.98;;;9.80;98.40;;;;;;4935216;29;20495;-78
2021/12/29 08:28:06;;;;;;;6.15;4.63;;;9.80;98.70;;;;;;4935324;29;20504;-77
2021/12/29 08:30:32;;;;;;;4.68;2.65;;;9.80;99.10;;;;;;4934494;29;20043;-77
2021/12/29 08:32:59;;;;;;;3.60;2.22;;;9.80;99.10;;;;;;4934167;29;20052;-77
2021/12/29 08:35:27;;;;;;;3.67;1.77;;;9.70;99.20;;;;;;4934294;29;20047;-76
2021/12/29 08:37:54;;;;;;;5.25;1.77;;;9.70;99.50;;;;;;4935034;29;20040;-76
2021/12/29 08:40:21;;;;;;;2.90;1.90;;;9.70;99.40;;;;;;4934078;29;20492;-77
2021/12/29 08:42:48;;;;;;;14.70;10.57;;;9.60;99.50;;;;;;4937738;29;20039;-77
2021/12/29 08:45:16;;;;;;;10.40;7.57;;;9.60;99.00;;;;;;4938020;29;20043;-77
2021/12/29 08:47:44;;;;;;;4.30;2.65;;;9.70;99.20;;;;;;4937949;29;20058;-77
2021/12/29 08:50:14;;;;;;;6.97;5.18;;;9.70;99.00;;;;;;4938598;29;20457;-77
2021/12/29 08:52:40;;;;;;;2.67;2.28;;;9.80;98.60;;;;;;4938587;29;20042;-74
2021/12/29 08:55:09;;;;;;;7.82;4.75;;;9.80;98.80;;;;;;4937972;29;20044;-74
2021/12/29 08:57:35;;;;;;;3.60;1.98;;;9.90;98.50;;;;;;4937873;29;20028;-75
2021/12/29 09:00:03;;;;;;;10.00;3.47;;;9.90;97.70;;;;;;4938665;29;20043;-74
2021/12/29 09:02:29;;;;;;;14.18;6.68;;;10.00;98.00;;;;;;4937560;29;20027;-74
2021/12/29 09:04:55;;;;;;;5.07;2.40;;;10.00;97.60;;;;;;4938484;29;20036;-74
2021/12/29 09:07:22;;;;;;;5.00;2.10;;;10.10;97.60;;;;;;4937575;29;20042;-73
2021/12/29 09:09:48;;;;;;;6.00;2.78;;;10.10;97.10;;;;;;4938099;29;20035;-73
2021/12/29 09:12:14;;;;;;;4.68;3.55;;;10.20;97.10;;;;;;4938176;29;20043;-73
2021/12/29 09:14:40;;;;;;;9.63;3.00;;;10.20;97.00;;;;;;4938390;29;20054;-73
2021/12/29 09:17:06;;;;;;;6.55;2.67;;;10.20;97.10;;;;;;4939141;29;20048;-74
2021/12/29 09:19:38;;;;;;;5.00;2.85;;;10.20;97.20;;;;;;4938185;29;20470;-75
2021/12/29 09:22:05;;;;;;;4.60;2.60;;;10.20;96.50;;;;;;4939055;29;20050;-74
2021/12/29 09:24:31;;;;;;;5.03;2.70;;;10.30;96.60;;;;;;4942424;29;20127;-74
2021/12/29 09:26:57;;;;;;;8.43;4.03;;;10.30;96.80;;;;;;4937494;29;20492;-73
2021/12/29 09:29:23;;;;;;;4.22;2.40;;;10.30;96.50;;;;;;4937307;29;20061;-73
2021/12/29 09:31:49;;;;;;;11.18;2.10;;;10.30;96.20;;;;;;4936714;29;20059;-74
2021/12/29 09:34:16;;;;;;;5.32;2.53;;;10.40;95.90;;;;;;4937290;29;20032;-73
2021/12/29 09:36:42;;;;;;;4.53;1.80;;;10.50;96.10;;;;;;4938057;29;20063;-74
2021/12/29 09:39:08;;;;;;;2.97;2.08;;;10.60;94.90;;;;;;4937522;29;20054;-74
2021/12/29 09:41:35;;;;;;;5.65;2.90;;;10.60;95.00;;;;;;4937351;29;20036;-74
2021/12/29 09:44:01;;;;;;;5.15;2.10;;;10.60;95.10;;;;;;4937843;29;20039;-74
2021/12/29 09:46:27;;;;;;;7.78;3.58;;;10.50;94.70;;;;;;4937184;29;20039;-73
2021/12/29 09:48:53;;;;;;;11.25;7.10;;;10.60;94.80;;;;;;4937295;29;20040;-74
2021/12/29 09:51:20;;;;;;;4.00;2.10;;;10.60;94.40;;;;;;4936559;29;20043;-74
2021/12/29 09:53:46;;;;;;;9.98;2.80;;;10.60;94.70;;;;;;4936691;29;20031;-74
2021/12/29 09:56:13;;;;;;;6.95;4.55;;;10.60;94.40;;;;;;4937421;29;20032;-74
2021/12/29 09:58:39;;;;;;;8.30;4.82;;;10.70;94.20;;;;;;4936648;29;20393;-74
2021/12/29 10:01:08;;;;;;;9.20;3.40;;;10.70;94.70;;;;;;4960882;28;20476;-74
2021/12/29 10:03:35;;;;;;;10.32;2.30;;;10.80;93.90;;;;;;4959227;28;20031;-73
2021/12/29 10:06:06;;;;;;;13.60;6.40;;;10.70;94.30;;;;;;4956340;29;20035;-74
2021/12/29 10:08:38;;;;;;;5.70;2.13;;;10.70;94.20;;;;;;4955785;29;20039;-73
2021/12/29 10:11:11;;;;;;;7.32;3.42;;;10.60;94.10;;;;;;4956274;29;20039;-74
2021/12/29 10:13:41;;;;;;;4.70;2.55;;;10.60;93.90;;;;;;4955656;29;20074;-73
2021/12/29 10:16:13;;;;;;;7.00;3.63;;;10.60;93.60;;;;;;4956207;29;20051;-73
2021/12/29 10:18:43;;;;;;;7.70;5.50;;;10.60;94.40;;;;;;4955461;29;20282;-74
2021/12/29 10:21:20;;;;;;;5.70;2.95;;;10.70;94.40;;;;;;4955975;29;20038;-73
2021/12/29 10:23:49;;;;;;;7.18;4.25;;;10.70;94.00;;;;;;4956187;29;20043;-73
2021/12/29 10:26:21;;;;;;;4.95;1.70;;;10.70;93.50;;;;;;4955879;29;20033;-73
2021/12/29 10:29:00;;;;;;;6.30;2.50;;;10.70;93.60;;;;;;4955859;29;20035;-72
2021/12/29 10:31:29;;;;;;;12.98;6.38;;;10.70;93.80;;;;;;4952250;29;20038;-72
2021/12/29 10:33:58;;;;;;;6.53;2.85;;;10.60;93.70;;;;;;4946514;29;20039;-72
2021/12/29 10:36:29;;;;;;;5.15;1.92;;;10.60;93.60;;;;;;4934849;29;20046;-73
2021/12/29 10:39:10;;;;;;;;;;;10.60;94.10;;;;;;4956096;29;20036;-73
2021/12/29 10:41:44;;;;;;;2.90;1.48;;;10.50;93.70;;;;;;4955392;29;19933;-73
2021/12/29 10:44:13;;;;;;;5.75;2.42;;;10.50;93.80;;;;;;4956138;29;20027;-73
2021/12/29 10:46:39;;;;;;;3.65;2.00;;;10.50;94.00;;;;;;4955934;29;20463;-73
2021/12/29 10:49:08;;;;;;;9.38;2.72;;;10.60;94.00;;;;;;4955630;29;20058;-73
2021/12/29 10:51:42;;;;;;;3.97;2.10;;;10.60;93.60;;;;;;4954845;29;20389;-73
2021/12/29 10:54:19;;;;;;;8.15;2.42;;;10.70;93.80;;;;;;4955090;29;20476;-73
2021/12/29 10:56:58;;;;;;;4.10;1.80;;;10.70;93.80;;;;;;4955347;29;20035;-73
2021/12/29 10:59:29;;;;;;;11.32;2.13;;;10.60;94.20;;;;;;4954729;29;20031;-73
2021/12/29 11:01:55;;;;;;;;;;;10.60;94.30;;;;;;4955753;29;20039;-74
2021/12/29 11:04:23;;;;;;;4.07;1.85;;;10.50;94.80;;;;;;4954484;28;19910;-73
2021/12/29 11:06:56;;;;;;;8.23;2.55;;;10.50;95.10;;;;;;4953924;29;20047;-74
2021/12/29 11:09:28;;;;;;;11.48;2.30;;;10.40;95.30;;;;;;4954677;29;20406;-74
2021/12/29 11:11:56;;;;;;;3.42;1.90;;;10.50;95.60;;;;;;4954969;29;20050;-77
2021/12/29 11:14:23;;;;;;;3.67;1.92;;;10.40;96.00;;;;;;4954317;29;20362;-75
2021/12/29 11:17:04;;;;;;;7.65;2.38;;;10.40;96.10;;;;;;4954201;29;20054;-77
2021/12/29 11:19:31;;;;;;;9.88;2.00;;;10.40;96.20;;;;;;4946715;29;20035;-77
2021/12/29 11:22:15;;;;;;;4.20;2.03;;;10.40;96.60;;;;;;4941040;29;20039;-78
2021/12/29 11:24:44;;;;;;;4.85;1.73;;;10.40;97.30;;;;;;4947541;29;20272;-79
2021/12/29 11:27:18;;;;;;;1.85;1.33;;;10.30;97.40;;;;;;4954518;29;20039;-79
2021/12/29 11:30:12;;;;;;;7.60;2.60;;;10.40;97.50;;;;;;4954561;29;20038;-79
2021/12/29 11:32:44;;;;;;;13.85;7.32;;;10.50;97.20;;;;;;4954457;29;20376;-78
2021/12/29 11:35:15;;;;;;;6.53;1.92;;;10.50;97.10;;;;;;4954863;29;20035;-77
2021/12/29 11:37:48;;;;;;;9.65;6.07;;;10.50;97.00;;;;;;4954129;29;20039;-77
2021/12/29 11:40:19;;;;;;;5.57;3.55;;;10.40;97.40;;;;;;4954749;29;20036;-76
2021/12/29 11:42:47;;;;;;;5.85;2.47;;;10.40;97.40;;;;;;4954317;29;20055;-77
2021/12/29 11:45:14;;;;;;;3.25;2.13;;;10.40;97.70;;;;;;4954662;29;20039;-78
2021/12/29 11:47:41;;;;;;;5.10;1.73;;;10.30;98.20;;;;;;4954361;29;20038;-77
2021/12/29 11:50:12;;;;;;;5.43;2.08;;;10.20;99.10;;;;;;4954258;29;20051;-77
2021/12/29 11:52:52;;;;;;;5.45;2.10;;;10.10;99.90;;;;;;4953977;29;20039;-77
2021/12/29 11:55:22;;;;;;;7.43;2.50;;;10.10;99.90;;;;;;4954739;29;20047;-77
2021/12/29 11:57:48;;;;;;;12.48;2.17;;;10.00;99.90;;;;;;4936358;29;20035;-78
2021/12/29 12:00:18;;;;;;;3.15;1.40;;;9.90;99.90;;;;;;4954486;29;20027;-77
2021/12/29 12:02:46;;;;;;;5.82;2.28;;;10.00;99.90;;;;;;4953686;29;20480;-76
2021/12/29 12:05:16;;;;;;;11.73;6.03;;;10.00;99.90;;;;;;4954540;29;20038;-77
2021/12/29 12:07:43;;;;;;;2.97;1.45;;;9.90;99.90;;;;;;4954037;29;20031;-77
2021/12/29 12:10:33;;;;;;;4.00;2.13;;;9.80;99.90;;;;;;4921629;29;20038;-77
2021/12/29 12:12:59;;;;;;;4.78;1.73;;;9.80;99.90;;;;;;4954630;29;20035;-78
2021/12/29 12:15:36;;;;;;;2.78;1.63;;;9.80;99.90;;;;;;4953212;29;20055;-78
2021/12/29 12:18:07;;;;;;;5.03;2.38;;;9.80;99.90;;;;;;4954420;29;20039;-77
2021/12/29 12:20:48;;;;;;;21.52;16.27;;;9.80;99.90;;;;;;4953500;29;20043;-78
2021/12/29 12:23:26;;;;;;;9.05;5.25;;;9.80;99.90;;;;;;4954704;29;20046;-77
2021/12/29 12:26:09;;;;;;;6.50;3.53;;;9.70;99.90;;;;;;4955460;29;20034;-77
2021/12/29 12:28:47;;;;;;;6.28;5.65;;;9.80;99.90;;;;;;4953457;29;20035;-77
2021/12/29 12:31:24;;;;;;;7.93;5.05;;;9.70;99.90;;;;;;4937392;29;20050;-77
2021/12/29 12:33:51;;;;;;;9.75;3.67;;;9.70;99.90;;;;;;4953608;29;20035;-77
2021/12/29 12:36:18;;;;;;;11.50;4.57;;;9.80;99.90;;;;;;4953806;29;20361;-78
2021/12/29 12:38:44;;;;;;;5.68;2.65;;;9.70;99.90;;;;;;4953559;29;20031;-77
2021/12/29 12:41:14;;;;;;;8.30;2.83;;;9.70;99.90;;;;;;4936600;29;20039;-77
2021/12/29 12:44:08;;;;;;;5.03;3.35;;;9.70;99.90;;;;;;4953414;29;20042;-77
2021/12/29 12:46:42;;;;;;;3.22;2.33;;;9.70;99.90;;;;;;4949895;29;20047;-77
2021/12/29 12:49:16;;;;;;;9.55;3.47;;;9.70;99.90;;;;;;4953601;29;20048;-77
2021/12/29 12:51:58;;;;;;;5.63;2.92;;;9.60;99.90;;;;;;4953517;29;20035;-77
2021/12/29 12:54:28;;;;;;;6.82;3.33;;;9.60;99.90;;;;;;4954127;29;20039;-78
2021/12/29 12:56:59;;;;;;;6.07;3.10;;;9.60;99.90;;;;;;4953743;29;20035;-77
2021/12/29 12:59:43;;;;;;;7.15;3.60;;;9.60;99.90;;;;;;4953833;29;20409;-77
2021/12/29 13:02:19;;;;;;;7.38;3.40;;;9.50;99.90;;;;;;4953582;29;20031;-77
2021/12/29 13:05:09;;;;;;;7.20;3.88;;;9.50;99.90;;;;;;4953281;29;20412;-78
2021/12/29 13:07:36;;;;;;;7.38;3.78;;;9.50;99.90;;;;;;4953121;29;20496;-78
2021/12/29 13:10:04;;;;;;;6.85;3.42;;;9.50;99.90;;;;;;4936347;29;20039;-78